Time;durP1;ratioP1;P1;durP2;ratioP2;P2;SDS_P1;SDS_P2;PMS_P1;PMS_P2;Temp;Humidity;BMP_temperature;BMP_pressure;BME280_temperature;BME280_humidity;BME280_pressure;Samples;Min_cycle;Max_cycle;Signal;HPM_P1;HPM_P2
2023/07/06 00:00:54;;;;;;;7.50;3.10;;;18.00;65.50;;;;;;5102684;28;20496;-78
2023/07/06 00:03:24;;;;;;;6.07;3.13;;;17.90;65.50;;;;;;5100363;28;20476;-78
2023/07/06 00:05:52;;;;;;;5.67;2.83;;;17.90;65.60;;;;;;5102485;28;20533;-79
2023/07/06 00:08:21;;;;;;;6.47;3.00;;;17.90;65.60;;;;;;5102761;28;20462;-78
2023/07/06 00:10:50;;;;;;;6.43;3.50;;;17.80;65.80;;;;;;5100594;28;20570;-79
2023/07/06 00:13:20;;;;;;;8.10;2.93;;;17.70;65.80;;;;;;5102170;28;20534;-78
2023/07/06 00:15:49;;;;;;;8.37;3.43;;;17.70;65.90;;;;;;5101967;28;20566;-76
2023/07/06 00:18:20;;;;;;;11.20;3.87;;;17.60;66.00;;;;;;5095587;28;20467;-79
2023/07/06 00:20:50;;;;;;;6.73;3.20;;;17.60;66.10;;;;;;5100535;28;20781;-77
2023/07/06 00:23:18;;;;;;;6.87;3.10;;;17.60;66.10;;;;;;5100746;28;20473;-79
2023/07/06 00:25:47;;;;;;;6.23;2.87;;;17.50;66.10;;;;;;5099112;28;20498;-79
2023/07/06 00:28:16;;;;;;;8.27;3.50;;;17.50;66.10;;;;;;5102062;28;20975;-78
2023/07/06 00:30:55;;;;;;;8.37;3.80;;;17.40;66.20;;;;;;5113254;27;21003;-78
2023/07/06 00:33:25;;;;;;;11.20;3.07;;;17.40;66.30;;;;;;5098253;28;20461;-79
2023/07/06 00:35:54;;;;;;;9.47;3.60;;;17.30;66.30;;;;;;5104172;28;20489;-78
2023/07/06 00:38:24;;;;;;;9.77;4.10;;;17.30;66.40;;;;;;5103202;28;20468;-78
2023/07/06 00:40:57;;;;;;;6.67;3.63;;;17.30;66.40;;;;;;5094080;28;20517;-79
2023/07/06 00:43:28;;;;;;;8.70;3.40;;;17.20;66.50;;;;;;5117723;27;20460;-79
2023/07/06 00:46:05;;;;;;;9.27;3.60;;;17.20;66.60;;;;;;5104308;28;20475;-77
2023/07/06 00:48:36;;;;;;;7.63;3.53;;;17.20;66.80;;;;;;5099125;28;20971;-79
2023/07/06 00:51:09;;;;;;;8.17;3.30;;;17.20;66.90;;;;;;5094394;28;21141;-77
2023/07/06 00:53:40;;;;;;;6.60;3.60;;;17.20;67.00;;;;;;5094566;28;20584;-77
2023/07/06 00:56:11;;;;;;;5.63;3.00;;;17.30;67.00;;;;;;5101686;28;20454;-78
2023/07/06 00:58:43;;;;;;;7.30;3.90;;;17.30;67.00;;;;;;5103351;28;20465;-78
2023/07/06 01:01:12;;;;;;;13.37;4.23;;;17.30;66.90;;;;;;5102906;28;20468;-80
2023/07/06 01:03:46;;;;;;;9.50;4.00;;;17.30;66.90;;;;;;5102105;28;20803;-80
2023/07/06 01:06:20;;;;;;;6.70;3.57;;;17.30;66.90;;;;;;5099639;28;20480;-78
2023/07/06 01:08:49;;;;;;;7.90;3.50;;;17.30;66.80;;;;;;5098256;28;20465;-77
2023/07/06 01:11:19;;;;;;;9.40;4.03;;;17.30;66.80;;;;;;5102152;28;20458;-76
2023/07/06 01:13:49;;;;;;;7.97;3.37;;;17.20;66.60;;;;;;5099729;28;20557;-79
2023/07/06 01:16:25;;;;;;;8.17;3.90;;;17.10;66.70;;;;;;5097142;28;21208;-78
2023/07/06 01:19:02;;;;;;;6.40;3.57;;;17.00;66.80;;;;;;5102139;28;20521;-78
2023/07/06 01:21:40;;;;;;;7.30;3.67;;;16.90;66.90;;;;;;5098253;28;20971;-80
2023/07/06 01:24:38;;;;;;;8.27;3.60;;;16.80;66.90;;;;;;5097588;28;20465;-78
2023/07/06 01:27:24;;;;;;;7.30;3.27;;;16.70;67.10;;;;;;5103377;28;20478;-78
2023/07/06 01:30:33;;;;;;;6.57;3.43;;;16.70;67.10;;;;;;5101668;28;20463;-80
2023/07/06 01:33:08;;;;;;;9.30;3.63;;;16.60;67.30;;;;;;5097358;28;20468;-77
2023/07/06 01:35:43;;;;;;;6.50;3.80;;;16.60;67.30;;;;;;5103443;28;20448;-80
2023/07/06 01:38:14;;;;;;;8.80;3.40;;;16.50;67.30;;;;;;5118595;28;20973;-79
2023/07/06 01:40:42;;;;;;;9.83;3.50;;;16.50;67.50;;;;;;5104700;28;20479;-78
2023/07/06 01:43:13;;;;;;;9.67;3.10;;;16.40;67.60;;;;;;5100285;28;20447;-77
2023/07/06 01:45:41;;;;;;;6.47;3.10;;;16.40;67.70;;;;;;5096949;28;20476;-78
2023/07/06 01:48:13;;;;;;;6.10;3.43;;;16.50;67.80;;;;;;5102486;28;20516;-79
2023/07/06 01:50:48;;;;;;;7.07;3.10;;;16.50;67.80;;;;;;5100974;28;20479;-76
2023/07/06 01:53:28;;;;;;;11.50;3.53;;;16.50;67.80;;;;;;5103302;28;20501;-78
2023/07/06 01:56:01;;;;;;;7.00;2.60;;;16.50;67.70;;;;;;5103420;28;20801;-77
2023/07/06 01:58:35;;;;;;;5.80;2.90;;;16.40;67.70;;;;;;5106458;28;20551;-77
2023/07/06 02:01:08;;;;;;;5.97;3.10;;;16.40;67.70;;;;;;5107735;28;20494;-79
2023/07/06 02:03:39;;;;;;;6.67;3.17;;;16.30;67.80;;;;;;5104590;28;20464;-78
2023/07/06 02:06:10;;;;;;;7.83;4.03;;;16.30;67.80;;;;;;5099294;28;20485;-79
2023/07/06 02:08:41;;;;;;;7.30;3.63;;;16.30;67.90;;;;;;5103393;28;21228;-79
2023/07/06 02:11:10;;;;;;;11.53;3.90;;;16.30;67.90;;;;;;5104341;28;20448;-78
2023/07/06 02:13:38;;;;;;;6.30;3.67;;;16.20;68.00;;;;;;5108404;27;20476;-78
2023/07/06 02:16:07;;;;;;;6.97;3.30;;;16.20;68.00;;;;;;5102010;28;20468;-78
2023/07/06 02:18:35;;;;;;;8.47;3.40;;;16.20;68.00;;;;;;5108027;28;20456;-78
2023/07/06 02:21:05;;;;;;;5.80;3.37;;;16.30;68.10;;;;;;5103890;28;20548;-77
2023/07/06 02:23:33;;;;;;;6.90;3.20;;;16.30;68.10;;;;;;5104130;27;20463;-77
2023/07/06 02:26:01;;;;;;;8.30;3.03;;;16.20;68.00;;;;;;5104369;28;20494;-77
2023/07/06 02:28:30;;;;;;;6.30;3.10;;;16.20;67.90;;;;;;5104348;28;20472;-78
2023/07/06 02:30:59;;;;;;;11.40;3.23;;;16.10;67.90;;;;;;5103534;28;20488;-78
2023/07/06 02:33:28;;;;;;;5.63;2.90;;;16.10;68.00;;;;;;5107254;28;20456;-78
2023/07/06 02:35:56;;;;;;;6.63;3.70;;;16.10;68.00;;;;;;5102919;28;20469;-78
2023/07/06 02:38:29;;;;;;;7.37;4.00;;;16.00;68.00;;;;;;5102744;28;20456;-78
2023/07/06 02:40:58;;;;;;;6.67;3.37;;;16.00;68.10;;;;;;5105622;28;20464;-78
2023/07/06 02:43:26;;;;;;;8.20;3.10;;;16.00;68.10;;;;;;5104842;28;20465;-77
2023/07/06 02:45:54;;;;;;;9.43;3.90;;;15.90;68.20;;;;;;5119006;27;20472;-79
2023/07/06 02:48:24;;;;;;;7.30;3.33;;;15.90;68.30;;;;;;5104400;28;20460;-79
2023/07/06 02:50:53;;;;;;;7.40;3.67;;;15.90;68.40;;;;;;5103641;27;20985;-77
2023/07/06 02:53:21;;;;;;;9.57;3.53;;;15.90;68.40;;;;;;5097930;27;20512;-78
2023/07/06 02:55:51;;;;;;;10.60;4.00;;;16.00;68.40;;;;;;5109497;27;20539;-77
2023/07/06 02:58:20;;;;;;;6.80;3.33;;;15.90;68.30;;;;;;5106527;27;20502;-78
2023/07/06 03:00:50;;;;;;;7.50;3.43;;;15.90;68.30;;;;;;5102036;28;20650;-79
2023/07/06 03:03:19;;;;;;;6.40;3.10;;;15.90;68.40;;;;;;5103687;28;20492;-76
2023/07/06 03:05:49;;;;;;;7.00;3.10;;;15.90;68.40;;;;;;5100667;28;21322;-79
2023/07/06 03:08:17;;;;;;;6.90;3.23;;;16.00;68.40;;;;;;5105331;28;20465;-77
2023/07/06 03:10:46;;;;;;;6.97;3.30;;;16.00;68.30;;;;;;5105109;28;20468;-77
2023/07/06 03:13:16;;;;;;;5.80;3.00;;;15.90;68.20;;;;;;5106277;28;20452;-77
2023/07/06 03:15:45;;;;;;;9.93;4.00;;;15.90;68.20;;;;;;5103626;28;20505;-77
2023/07/06 03:18:13;;;;;;;7.67;3.00;;;15.80;68.10;;;;;;5103973;28;20443;-79
2023/07/06 03:20:41;;;;;;;6.87;3.47;;;15.70;68.20;;;;;;5100651;28;20453;-77
2023/07/06 03:23:10;;;;;;;6.13;3.37;;;15.70;68.30;;;;;;5102453;28;20487;-77
2023/07/06 03:25:38;;;;;;;8.37;3.67;;;15.70;68.30;;;;;;5105167;28;21107;-78
2023/07/06 03:28:06;;;;;;;6.67;3.53;;;15.70;68.30;;;;;;5106661;28;20464;-80
2023/07/06 03:30:36;;;;;;;7.20;3.43;;;15.60;68.40;;;;;;5103426;28;20474;-77
2023/07/06 03:33:04;;;;;;;6.40;3.23;;;15.60;68.40;;;;;;5103369;28;20526;-79
2023/07/06 03:35:33;;;;;;;7.03;3.90;;;15.60;68.40;;;;;;5098894;28;20464;-79
2023/07/06 03:38:01;;;;;;;10.57;3.83;;;15.60;68.40;;;;;;5101397;28;20453;-78
2023/07/06 03:40:30;;;;;;;6.63;2.80;;;15.60;68.40;;;;;;5102279;27;20523;-78
2023/07/06 03:42:58;;;;;;;7.73;3.60;;;15.50;68.30;;;;;;5102847;28;20492;-79
2023/07/06 03:45:26;;;;;;;8.80;3.50;;;15.40;68.40;;;;;;5100312;28;20462;-79
2023/07/06 03:47:56;;;;;;;9.87;3.20;;;15.40;68.40;;;;;;5104046;27;20478;-80
2023/07/06 03:50:24;;;;;;;6.80;3.70;;;15.30;68.60;;;;;;5100127;27;20474;-77
2023/07/06 03:52:52;;;;;;;5.57;3.03;;;15.30;68.70;;;;;;5102068;28;20983;-78
2023/07/06 03:55:24;;;;;;;7.77;3.43;;;15.20;68.70;;;;;;5106416;28;21278;-77
2023/07/06 03:57:52;;;;;;;5.87;3.23;;;15.20;68.90;;;;;;5100042;28;20537;-78
2023/07/06 04:00:24;;;;;;;6.80;3.40;;;15.20;69.20;;;;;;5101729;28;20457;-79
2023/07/06 04:02:54;;;;;;;6.80;3.60;;;15.20;69.30;;;;;;5097744;28;20493;-78
2023/07/06 04:05:31;;;;;;;7.20;3.40;;;15.30;69.40;;;;;;5100276;28;20574;-77
2023/07/06 04:07:59;;;;;;;6.70;3.00;;;15.40;69.30;;;;;;5103159;28;20850;-77
2023/07/06 04:10:28;;;;;;;10.17;3.97;;;15.40;69.30;;;;;;5102029;28;20462;-79
2023/07/06 04:12:56;;;;;;;7.20;3.87;;;15.50;69.30;;;;;;5100158;28;20505;-77
2023/07/06 04:15:24;;;;;;;7.13;3.77;;;15.60;69.30;;;;;;5104552;28;20572;-78
2023/07/06 04:17:53;;;;;;;8.73;3.60;;;15.60;69.40;;;;;;5099511;28;20455;-77
2023/07/06 04:20:26;;;;;;;10.30;4.07;;;15.70;69.40;;;;;;5117988;27;20803;-78
2023/07/06 04:22:58;;;;;;;7.77;3.67;;;15.80;69.30;;;;;;5098197;28;20525;-77
2023/07/06 04:25:29;;;;;;;6.60;3.20;;;15.80;69.40;;;;;;5101893;28;20946;-78
2023/07/06 04:27:58;;;;;;;7.90;3.10;;;15.90;69.50;;;;;;5102353;28;21134;-78
2023/07/06 04:30:27;;;;;;;8.03;3.70;;;16.00;69.40;;;;;;5100845;28;20989;-77
2023/07/06 04:32:56;;;;;;;7.80;3.80;;;16.20;69.40;;;;;;5101984;28;20517;-79
2023/07/06 04:35:26;;;;;;;8.07;4.00;;;16.30;69.40;;;;;;5101921;28;20555;-78
2023/07/06 04:37:54;;;;;;;8.33;3.10;;;16.50;69.40;;;;;;5101345;28;21171;-78
2023/07/06 04:40:26;;;;;;;7.37;3.47;;;16.60;69.40;;;;;;5102542;28;21041;-78
2023/07/06 04:42:56;;;;;;;6.60;3.50;;;16.70;69.20;;;;;;5100387;28;20495;-76
2023/07/06 04:45:25;;;;;;;7.63;3.60;;;16.90;69.10;;;;;;5102941;28;20516;-78
2023/07/06 04:47:56;;;;;;;8.30;4.20;;;17.00;69.10;;;;;;5103715;28;20483;-79
2023/07/06 04:50:27;;;;;;;8.87;3.90;;;17.20;69.10;;;;;;5103239;28;20953;-78
2023/07/06 04:52:57;;;;;;;16.77;3.50;;;17.30;69.00;;;;;;5100084;28;20465;-76
2023/07/06 04:55:28;;;;;;;10.80;3.20;;;17.50;68.80;;;;;;5104421;28;20525;-81
2023/07/06 04:57:58;;;;;;;13.43;3.70;;;17.70;68.70;;;;;;5101683;28;20485;-78
2023/07/06 05:00:29;;;;;;;10.43;3.60;;;17.80;68.70;;;;;;5103950;28;20487;-79
2023/07/06 05:02:59;;;;;;;11.07;4.63;;;18.00;68.60;;;;;;5101796;28;20901;-79
2023/07/06 05:05:32;;;;;;;11.43;4.07;;;18.10;68.50;;;;;;5099919;28;20455;-77
2023/07/06 05:08:00;;;;;;;9.77;3.80;;;18.30;68.40;;;;;;5099448;28;20486;-78
2023/07/06 05:10:28;;;;;;;13.20;3.80;;;18.40;68.40;;;;;;5101517;28;20785;-79
2023/07/06 05:12:56;;;;;;;10.53;3.30;;;18.60;68.30;;;;;;5102384;28;20894;-79
2023/07/06 05:15:25;;;;;;;6.47;3.47;;;18.70;68.20;;;;;;5103501;28;21227;-78
2023/07/06 05:17:54;;;;;;;9.23;3.77;;;18.90;67.90;;;;;;5092208;28;20941;-78
2023/07/06 05:20:23;;;;;;;7.27;3.63;;;19.00;67.80;;;;;;5105334;28;20466;-79
2023/07/06 05:22:53;;;;;;;9.03;3.60;;;19.20;67.60;;;;;;5098526;28;20465;-77
2023/07/06 05:25:21;;;;;;;6.77;3.43;;;19.30;67.50;;;;;;5098091;28;20470;-77
2023/07/06 05:27:49;;;;;;;9.90;4.07;;;19.50;67.30;;;;;;5097262;28;20490;-78
2023/07/06 05:30:18;;;;;;;7.60;3.73;;;19.60;67.00;;;;;;5098763;28;20474;-79
2023/07/06 05:32:49;;;;;;;7.53;3.40;;;19.70;67.00;;;;;;5103556;28;20493;-80
2023/07/06 05:35:19;;;;;;;9.20;3.33;;;19.80;67.00;;;;;;5105904;28;20462;-78
2023/07/06 05:37:48;;;;;;;8.70;3.13;;;19.90;67.00;;;;;;5102758;28;20484;-79
2023/07/06 05:40:18;;;;;;;7.53;3.20;;;20.20;67.20;;;;;;5102729;28;21121;-81
2023/07/06 05:42:46;;;;;;;9.20;3.80;;;20.50;67.30;;;;;;5101749;27;20484;-79
2023/07/06 05:45:15;;;;;;;7.23;3.07;;;21.00;66.80;;;;;;5099278;28;20447;-78
2023/07/06 05:47:45;;;;;;;11.33;3.83;;;21.80;65.30;;;;;;5102830;28;20487;-77
2023/07/06 05:50:14;;;;;;;7.17;3.70;;;22.80;63.50;;;;;;5106279;28;20451;-75
2023/07/06 05:52:42;;;;;;;5.93;2.87;;;23.70;61.70;;;;;;5104964;28;20458;-78
2023/07/06 05:55:11;;;;;;;9.40;3.20;;;24.60;60.50;;;;;;5099420;28;20474;-78
2023/07/06 05:57:40;;;;;;;6.97;3.37;;;25.40;59.30;;;;;;5103581;28;20459;-78
2023/07/06 06:00:10;;;;;;;9.10;3.73;;;26.10;58.30;;;;;;5102566;28;20488;-78
2023/07/06 06:02:39;;;;;;;7.30;3.10;;;26.70;57.60;;;;;;5098940;28;20457;-78
2023/07/06 06:05:07;;;;;;;10.70;3.27;;;27.30;56.70;;;;;;5103045;28;20508;-79
2023/07/06 06:07:36;;;;;;;7.30;3.07;;;27.80;56.00;;;;;;5104563;28;20479;-78
2023/07/06 06:10:05;;;;;;;7.00;3.13;;;28.20;55.20;;;;;;5104949;28;20528;-79
2023/07/06 06:12:34;;;;;;;6.93;2.80;;;28.60;54.30;;;;;;5104818;28;20839;-78
2023/07/06 06:15:04;;;;;;;7.73;3.43;;;28.80;53.50;;;;;;5108016;28;20464;-78
2023/07/06 06:17:31;;;;;;;8.03;3.03;;;28.90;52.80;;;;;;5105023;28;20453;-77
2023/07/06 06:19:59;;;;;;;8.97;3.60;;;28.60;52.70;;;;;;5100493;28;21189;-77
2023/07/06 06:22:28;;;;;;;7.60;3.40;;;28.10;52.90;;;;;;5103619;28;20464;-77
2023/07/06 06:24:56;;;;;;;7.33;3.20;;;27.40;53.30;;;;;;5102092;28;20456;-76
2023/07/06 06:27:24;;;;;;;7.30;3.20;;;26.90;53.70;;;;;;5106804;28;20491;-78
2023/07/06 06:29:53;;;;;;;7.67;3.20;;;26.40;54.20;;;;;;5103878;28;20815;-79
2023/07/06 06:32:25;;;;;;;6.20;3.10;;;26.00;54.60;;;;;;5101143;28;20475;-78
2023/07/06 06:34:53;;;;;;;7.10;2.80;;;25.40;55.00;;;;;;5106305;28;20460;-77
2023/07/06 06:37:21;;;;;;;7.30;3.50;;;24.90;55.40;;;;;;5110311;28;20467;-78
2023/07/06 06:39:51;;;;;;;8.40;3.23;;;24.40;55.70;;;;;;5105470;28;20455;-77
2023/07/06 06:42:19;;;;;;;6.40;3.10;;;23.90;56.30;;;;;;5105439;28;20816;-78
2023/07/06 06:44:49;;;;;;;8.70;2.80;;;23.50;56.60;;;;;;5107066;28;20460;-77
2023/07/06 06:47:17;;;;;;;7.70;2.70;;;23.20;57.10;;;;;;5107712;28;20526;-78
2023/07/06 06:49:47;;;;;;;6.30;2.77;;;22.80;57.40;;;;;;5102627;28;20701;-78
2023/07/06 06:52:16;;;;;;;6.97;2.87;;;22.60;57.70;;;;;;5102072;28;21027;-78
2023/07/06 06:54:50;;;;;;;5.57;2.67;;;22.40;58.10;;;;;;5102920;28;20490;-77
2023/07/06 06:57:18;;;;;;;6.13;2.70;;;22.20;58.30;;;;;;5100298;28;20461;-79
2023/07/06 06:59:47;;;;;;;6.97;3.03;;;22.00;58.50;;;;;;5096052;28;20464;-78
2023/07/06 07:02:17;;;;;;;9.13;2.90;;;21.90;58.80;;;;;;5101632;28;20480;-78
2023/07/06 07:04:46;;;;;;;7.40;3.00;;;21.70;59.10;;;;;;5098467;28;20989;-78
2023/07/06 07:07:14;;;;;;;7.40;3.07;;;21.70;59.30;;;;;;5105484;28;20505;-78
2023/07/06 07:09:42;;;;;;;6.30;2.37;;;21.50;59.50;;;;;;5098377;28;20484;-79
2023/07/06 07:12:10;;;;;;;6.97;2.50;;;21.50;59.60;;;;;;5102300;28;20782;-78
2023/07/06 07:14:39;;;;;;;7.23;2.27;;;21.40;59.60;;;;;;5104629;27;20464;-78
2023/07/06 07:17:10;;;;;;;7.27;2.70;;;21.40;59.80;;;;;;5103475;28;20446;-81
2023/07/06 07:19:39;;;;;;;10.17;2.97;;;21.30;60.00;;;;;;5104116;28;20472;-77
2023/07/06 07:22:08;;;;;;;7.20;2.40;;;21.20;60.10;;;;;;5099559;28;20457;-77
2023/07/06 07:24:36;;;;;;;11.33;3.20;;;21.20;60.20;;;;;;5121982;27;20810;-78
2023/07/06 07:27:05;;;;;;;11.80;2.70;;;21.20;60.20;;;;;;5106067;28;20549;-77
2023/07/06 07:29:34;;;;;;;6.90;2.40;;;21.20;60.40;;;;;;5105235;28;20464;-78
2023/07/06 07:32:03;;;;;;;9.57;2.40;;;21.10;60.40;;;;;;5102175;28;20492;-79
2023/07/06 07:34:32;;;;;;;8.27;2.80;;;21.00;60.50;;;;;;5101893;28;20529;-77
2023/07/06 07:37:00;;;;;;;7.23;2.33;;;21.00;60.50;;;;;;5099748;28;20460;-79
2023/07/06 07:39:29;;;;;;;6.20;2.70;;;21.00;60.70;;;;;;5101126;28;20467;-79
2023/07/06 07:41:58;;;;;;;9.33;2.80;;;21.00;60.70;;;;;;5101643;28;20459;-77
2023/07/06 07:44:28;;;;;;;8.13;2.50;;;21.00;60.70;;;;;;5100553;28;20459;-78
2023/07/06 07:46:58;;;;;;;12.07;2.90;;;21.00;60.90;;;;;;5103023;28;20456;-77
2023/07/06 07:49:26;;;;;;;6.90;2.70;;;21.00;61.00;;;;;;5105581;28;20843;-77
2023/07/06 07:51:54;;;;;;;8.07;2.60;;;21.00;61.10;;;;;;5103042;28;20463;-80
2023/07/06 07:54:23;;;;;;;6.33;2.67;;;21.00;61.10;;;;;;5102035;28;20888;-79
2023/07/06 07:56:54;;;;;;;7.40;2.50;;;21.10;61.10;;;;;;5098619;28;20453;-79
2023/07/06 07:59:23;;;;;;;9.37;2.93;;;21.20;61.10;;;;;;5099718;28;20452;-78
2023/07/06 08:01:51;;;;;;;6.50;2.50;;;21.20;61.10;;;;;;5099572;28;20571;-79
2023/07/06 08:04:20;;;;;;;6.10;2.43;;;21.20;61.10;;;;;;5101992;28;20461;-78
2023/07/06 08:06:48;;;;;;;6.30;2.40;;;21.30;61.10;;;;;;5101044;28;20461;-77
2023/07/06 08:09:17;;;;;;;6.47;2.37;;;21.30;61.10;;;;;;5097218;28;20945;-77
2023/07/06 08:11:46;;;;;;;7.03;2.80;;;21.30;61.00;;;;;;5097952;28;20452;-78
2023/07/06 08:14:33;;;;;;;9.53;2.23;;;21.30;61.00;;;;;;5097437;28;20488;-78
2023/07/06 08:17:04;;;;;;;7.70;2.50;;;21.40;60.90;;;;;;5100774;28;20463;-77
2023/07/06 08:19:33;;;;;;;8.17;3.00;;;21.40;60.90;;;;;;5098376;28;20450;-78
2023/07/06 08:22:22;;;;;;;7.50;2.37;;;21.40;60.60;;;;;;5095282;28;20561;-79
2023/07/06 08:24:50;;;;;;;7.20;2.50;;;21.40;60.70;;;;;;5100036;28;20452;-78
2023/07/06 08:27:18;;;;;;;6.57;2.60;;;21.40;60.50;;;;;;5102048;28;20486;-78
2023/07/06 08:29:52;;;;;;;6.10;2.80;;;21.50;60.50;;;;;;5101885;28;20846;-77
2023/07/06 08:32:21;;;;;;;5.63;2.47;;;21.50;60.30;;;;;;5103030;28;20510;-77
2023/07/06 08:34:50;;;;;;;8.73;3.03;;;21.50;60.20;;;;;;5104246;28;20460;-78
2023/07/06 08:37:18;;;;;;;7.83;2.70;;;21.50;59.90;;;;;;5104558;28;20456;-79
2023/07/06 08:39:47;;;;;;;8.10;2.70;;;21.50;60.10;;;;;;5099810;28;20811;-77
2023/07/06 08:42:18;;;;;;;7.63;2.53;;;21.60;60.00;;;;;;5098035;28;20471;-78
2023/07/06 08:44:53;;;;;;;6.93;2.40;;;21.50;60.00;;;;;;5102449;28;20460;-79
2023/07/06 08:47:25;;;;;;;6.63;2.67;;;21.60;60.00;;;;;;5104018;28;20456;-77
2023/07/06 08:49:56;;;;;;;7.33;2.60;;;21.60;60.10;;;;;;5101580;28;20479;-80
2023/07/06 08:52:24;;;;;;;8.90;2.90;;;21.60;60.10;;;;;;5100365;28;20934;-76
2023/07/06 08:54:53;;;;;;;6.60;2.80;;;21.70;59.90;;;;;;5097764;28;20467;-78
2023/07/06 08:57:25;;;;;;;8.40;2.27;;;21.70;59.90;;;;;;5095804;28;20464;-78
2023/07/06 08:59:54;;;;;;;7.20;2.80;;;21.80;59.90;;;;;;5104771;28;20455;-77
2023/07/06 09:02:24;;;;;;;8.17;2.57;;;21.90;59.90;;;;;;5106784;28;20483;-78
2023/07/06 09:04:54;;;;;;;11.47;2.60;;;21.90;59.90;;;;;;5105606;28;20459;-78
2023/07/06 09:07:29;;;;;;;8.87;2.87;;;21.90;59.80;;;;;;5104270;28;20459;-78
2023/07/06 09:09:57;;;;;;;6.00;2.17;;;21.90;59.70;;;;;;5105370;28;20488;-79
2023/07/06 09:12:45;;;;;;;9.27;2.70;;;21.90;59.50;;;;;;5107290;28;20480;-78
2023/07/06 09:15:17;;;;;;;5.47;2.50;;;22.00;59.40;;;;;;5106706;28;20459;-79
2023/07/06 09:17:46;;;;;;;11.50;3.80;;;22.00;59.60;;;;;;5108108;28;20448;-78
2023/07/06 09:20:16;;;;;;;7.00;2.77;;;22.00;59.40;;;;;;5107557;28;20516;-78
2023/07/06 09:22:45;;;;;;;5.40;2.20;;;22.10;59.20;;;;;;5100359;28;20463;-80
2023/07/06 09:25:17;;;;;;;8.70;2.60;;;22.10;59.20;;;;;;5107793;28;20525;-78
2023/07/06 09:27:48;;;;;;;7.50;2.80;;;22.10;59.10;;;;;;5102019;28;20471;-77
2023/07/06 09:30:29;;;;;;;7.00;2.77;;;22.00;59.00;;;;;;5105837;28;20459;-80
2023/07/06 09:33:05;;;;;;;7.30;2.23;;;22.00;58.90;;;;;;5102321;28;20469;-77
2023/07/06 09:35:36;;;;;;;8.20;2.50;;;22.10;58.90;;;;;;5101328;28;20452;-78
2023/07/06 09:38:06;;;;;;;6.93;3.10;;;22.10;58.90;;;;;;5105124;28;20827;-79
2023/07/06 09:40:34;;;;;;;5.87;2.43;;;22.10;59.00;;;;;;5104120;28;21013;-79
2023/07/06 09:43:02;;;;;;;5.40;2.20;;;22.20;58.90;;;;;;5102367;28;20894;-78
2023/07/06 09:45:34;;;;;;;7.40;3.10;;;22.20;58.70;;;;;;5107771;28;21101;-78
2023/07/06 09:48:27;;;;;;;8.57;3.00;;;22.20;58.80;;;;;;5104784;28;20471;-77
2023/07/06 09:51:02;;;;;;;9.47;2.80;;;22.30;58.70;;;;;;5103681;28;20476;-79
2023/07/06 09:53:33;;;;;;;6.17;2.87;;;22.30;58.60;;;;;;5106527;28;20451;-77
2023/07/06 09:56:02;;;;;;;6.60;3.30;;;22.30;58.50;;;;;;5106012;28;20463;-77
2023/07/06 09:58:33;;;;;;;5.80;2.87;;;22.30;58.50;;;;;;5105217;28;20457;-78
2023/07/06 10:01:10;;;;;;;7.60;2.53;;;22.40;58.30;;;;;;5101249;28;20476;-76
2023/07/06 10:03:46;;;;;;;8.30;2.80;;;22.50;58.10;;;;;;5103481;28;20461;-78
2023/07/06 10:06:31;;;;;;;6.50;3.03;;;22.50;58.10;;;;;;5102773;28;20980;-77
2023/07/06 10:09:08;;;;;;;7.77;2.50;;;22.60;58.00;;;;;;5103228;28;20474;-77
2023/07/06 10:11:43;;;;;;;6.20;2.50;;;22.60;57.80;;;;;;5106432;28;20457;-77
2023/07/06 10:14:21;;;;;;;11.03;2.73;;;22.60;58.00;;;;;;5103035;28;20455;-77
2023/07/06 10:17:01;;;;;;;8.13;3.00;;;22.60;57.90;;;;;;5105957;28;21004;-79
2023/07/06 10:19:32;;;;;;;8.57;3.17;;;22.60;57.70;;;;;;5105505;27;20456;-77
2023/07/06 10:22:12;;;;;;;6.23;2.60;;;22.50;57.80;;;;;;5106625;28;20967;-78
2023/07/06 10:24:48;;;;;;;7.43;2.53;;;22.50;57.90;;;;;;5104735;27;20559;-79
2023/07/06 10:27:25;;;;;;;7.70;2.70;;;22.60;57.90;;;;;;5114366;27;20475;-77
2023/07/06 10:30:00;;;;;;;7.40;2.60;;;22.60;57.90;;;;;;5104546;28;20471;-78
2023/07/06 10:32:33;;;;;;;5.83;2.57;;;22.60;57.90;;;;;;5100992;28;20914;-77
2023/07/06 10:35:06;;;;;;;6.60;2.47;;;22.70;57.70;;;;;;5106074;28;20447;-79
2023/07/06 10:37:36;;;;;;;7.80;2.80;;;22.80;57.60;;;;;;5100714;28;20453;-78
2023/07/06 10:40:15;;;;;;;5.80;2.67;;;22.80;57.50;;;;;;5104798;28;20448;-76
2023/07/06 10:42:47;;;;;;;6.30;2.40;;;22.90;57.50;;;;;;5104028;28;20812;-77
2023/07/06 10:45:38;;;;;;;6.50;2.50;;;23.00;57.60;;;;;;5108738;28;20454;-77
2023/07/06 10:48:16;;;;;;;6.67;2.40;;;23.10;57.40;;;;;;5101492;28;20480;-77
2023/07/06 10:50:49;;;;;;;8.30;3.13;;;23.10;57.70;;;;;;5105337;28;20471;-76
2023/07/06 10:53:24;;;;;;;6.70;2.50;;;23.10;57.50;;;;;;5106856;28;20471;-77
2023/07/06 10:56:07;;;;;;;5.97;2.63;;;23.20;57.60;;;;;;5105415;28;20463;-79
2023/07/06 10:58:37;;;;;;;9.10;3.57;;;23.20;57.00;;;;;;5102349;28;20841;-78
2023/07/06 11:01:09;;;;;;;9.27;3.20;;;23.20;56.70;;;;;;5098708;28;20477;-79
2023/07/06 11:03:39;;;;;;;6.90;2.40;;;23.20;56.50;;;;;;5101971;28;20471;-78
2023/07/06 11:06:12;;;;;;;6.87;2.77;;;23.20;56.30;;;;;;5104349;28;20467;-77
2023/07/06 11:09:19;;;;;;;7.03;2.37;;;23.20;56.20;;;;;;5104197;28;20507;-79
2023/07/06 11:12:18;;;;;;;8.50;2.83;;;23.20;56.10;;;;;;5104681;28;20484;-77
2023/07/06 11:14:48;;;;;;;7.67;2.60;;;23.20;56.00;;;;;;5100551;28;20464;-77
2023/07/06 11:17:27;;;;;;;8.30;2.67;;;23.10;56.10;;;;;;5101917;28;20946;-77
2023/07/06 11:20:02;;;;;;;8.37;3.83;;;23.20;56.10;;;;;;5105063;28;20578;-78
2023/07/06 11:22:31;;;;;;;11.97;3.03;;;23.20;56.20;;;;;;5104375;28;20978;-77
2023/07/06 11:25:05;;;;;;;6.70;2.70;;;23.30;56.30;;;;;;5110548;28;20678;-79
2023/07/06 11:27:36;;;;;;;6.90;2.67;;;23.40;56.30;;;;;;5107899;28;20483;-78
2023/07/06 11:30:13;;;;;;;9.23;3.13;;;23.40;56.20;;;;;;5105122;28;20472;-77
2023/07/06 11:32:57;;;;;;;9.77;2.77;;;23.50;55.90;;;;;;5104109;28;20469;-78
2023/07/06 11:35:42;;;;;;;8.20;2.67;;;23.60;55.70;;;;;;5107364;28;20486;-77
2023/07/06 11:38:23;;;;;;;9.07;3.00;;;23.60;55.50;;;;;;5106824;28;20491;-78
2023/07/06 11:41:09;;;;;;;9.00;2.93;;;23.60;55.60;;;;;;5104976;28;20460;-77
2023/07/06 11:43:49;;;;;;;7.70;2.70;;;23.70;55.70;;;;;;5104156;28;20885;-77
2023/07/06 11:46:27;;;;;;;5.90;2.83;;;23.80;55.70;;;;;;5095807;28;20463;-79
2023/07/06 11:49:09;;;;;;;6.40;3.07;;;23.80;55.30;;;;;;5102910;28;20459;-77
2023/07/06 11:51:38;;;;;;;8.70;2.80;;;23.90;54.90;;;;;;5096213;28;20568;-77
2023/07/06 11:54:07;;;;;;;7.30;3.27;;;23.90;54.80;;;;;;5101287;28;20470;-78
2023/07/06 11:56:50;;;;;;;6.20;2.73;;;23.90;54.60;;;;;;5101266;28;20550;-78
2023/07/06 11:59:36;;;;;;;10.37;3.00;;;23.80;54.50;;;;;;5101094;28;20456;-77
2023/07/06 12:02:14;;;;;;;6.97;2.30;;;23.80;54.50;;;;;;5102311;28;20476;-79
2023/07/06 12:04:45;;;;;;;6.30;2.53;;;23.70;54.40;;;;;;5107130;28;20466;-76
2023/07/06 12:07:25;;;;;;;6.53;2.90;;;23.70;54.40;;;;;;5106953;28;20528;-77
2023/07/06 12:09:53;;;;;;;7.00;2.30;;;23.70;54.30;;;;;;5098025;28;20541;-78
2023/07/06 12:12:29;;;;;;;5.73;2.30;;;23.70;54.30;;;;;;5095827;28;20482;-78
2023/07/06 12:14:58;;;;;;;6.77;2.43;;;23.70;54.10;;;;;;5098111;28;20447;-77
2023/07/06 12:17:29;;;;;;;6.83;2.77;;;23.70;54.10;;;;;;5099966;28;20452;-77
2023/07/06 12:19:58;;;;;;;7.10;2.40;;;23.80;53.90;;;;;;5103581;28;20460;-78
2023/07/06 12:22:28;;;;;;;6.07;2.40;;;23.80;53.60;;;;;;5096183;28;21016;-77
2023/07/06 12:24:56;;;;;;;5.93;2.77;;;23.80;53.50;;;;;;5101375;28;20447;-78
2023/07/06 12:27:27;;;;;;;5.50;2.30;;;23.80;53.50;;;;;;5102071;28;20467;-76
2023/07/06 12:30:04;;;;;;;5.77;2.20;;;23.70;53.60;;;;;;5100880;28;20456;-78
2023/07/06 12:32:33;;;;;;;8.63;2.43;;;23.80;53.50;;;;;;5102935;28;20494;-78
2023/07/06 12:35:06;;;;;;;8.63;2.90;;;23.80;53.40;;;;;;5102096;28;20476;-78
2023/07/06 12:37:35;;;;;;;8.50;2.30;;;23.80;53.30;;;;;;5107156;28;20996;-77
2023/07/06 12:40:19;;;;;;;8.90;3.00;;;23.80;53.30;;;;;;5105409;28;20464;-77
2023/07/06 12:42:48;;;;;;;7.97;3.03;;;23.90;52.90;;;;;;5103403;28;20459;-76
2023/07/06 12:45:20;;;;;;;8.63;2.43;;;23.90;52.90;;;;;;5100997;28;20895;-78
2023/07/06 12:47:56;;;;;;;8.90;2.37;;;23.90;52.90;;;;;;5099679;28;20461;-80
2023/07/06 12:50:30;;;;;;;6.20;2.10;;;23.80;53.00;;;;;;5106053;28;20447;-80
2023/07/06 12:53:08;;;;;;;7.80;2.53;;;23.90;53.10;;;;;;5098310;28;20926;-78
2023/07/06 12:55:36;;;;;;;7.10;2.30;;;23.90;52.40;;;;;;5093917;28;20459;-78
2023/07/06 12:58:25;;;;;;;7.37;3.20;;;23.90;52.30;;;;;;5101879;28;20661;-80
2023/07/06 13:01:00;;;;;;;6.30;2.40;;;23.90;52.00;;;;;;5095467;28;20467;-80
2023/07/06 13:03:28;;;;;;;6.30;2.67;;;23.90;52.40;;;;;;5093300;28;20587;-79
2023/07/06 13:05:57;;;;;;;7.00;2.23;;;24.00;52.90;;;;;;5102856;28;20934;-80
2023/07/06 13:08:27;;;;;;;6.30;2.73;;;24.10;52.50;;;;;;5102483;28;20497;-79